sensor_id;sensor_type;location;lat;lon;timestamp;pressure;altitude;pressure_sealevel;temperature;humidity
48668;BME280;34453;52.198;5.004;2023-03-01T07:38:00;103228.78;;;-1.49;100.00
48668;BME280;34453;52.198;5.004;2023-03-01T07:40:26;103230.44;;;-1.38;100.00
48668;BME280;34453;52.198;5.004;2023-03-01T07:42:55;103227.00;;;-1.31;100.00
48668;BME280;34453;52.198;5.004;2023-03-01T07:45:21;103226.09;;;-1.22;100.00
48668;BME280;34453;52.198;5.004;2023-03-01T07:47:47;103226.06;;;-1.15;100.00
48668;BME280;34453;52.198;5.004;2023-03-01T07:50:12;103226.88;;;-1.05;100.00
48668;BME280;34453;52.198;5.004;2023-03-01T07:52:38;103225.97;;;-0.96;100.00
48668;BME280;34453;52.198;5.004;2023-03-01T07:55:04;103226.72;;;-0.80;100.00
48668;BME280;34453;52.198;5.004;2023-03-01T07:57:30;103227.47;;;-0.65;100.00
48668;BME280;34453;52.198;5.004;2023-03-01T07:59:56;103229.94;;;-0.49;100.00
48668;BME280;34453;52.198;5.004;2023-03-01T08:02:22;103217.84;;;-0.36;100.00
48668;BME280;34453;52.198;5.004;2023-03-01T08:04:48;103226.25;;;-0.14;100.00
48668;BME280;34453;52.198;5.004;2023-03-01T08:07:13;103228.69;;;0.01;100.00
48668;BME280;34453;52.198;5.004;2023-03-01T08:09:39;103224.97;;;0.28;100.00
48668;BME280;34453;52.198;5.004;2023-03-01T08:12:05;103222.19;;;0.47;100.00
48668;BME280;34453;52.198;5.004;2023-03-01T08:14:33;103218.63;;;0.58;100.00
48668;BME280;34453;52.198;5.004;2023-03-01T08:16:59;103224.50;;;0.70;100.00
48668;BME280;34453;52.198;5.004;2023-03-01T08:19:24;103225.94;;;0.91;100.00
48668;BME280;34453;52.198;5.004;2023-03-01T08:21:50;103229.13;;;1.11;100.00
48668;BME280;34453;52.198;5.004;2023-03-01T08:24:16;103227.13;;;1.29;100.00
48668;BME280;34453;52.198;5.004;2023-03-01T08:26:41;103221.91;;;1.35;100.00
48668;BME280;34453;52.198;5.004;2023-03-01T08:29:07;103218.53;;;1.30;100.00
48668;BME280;34453;52.198;5.004;2023-03-01T08:31:37;103215.72;;;1.45;100.00
48668;BME280;34453;52.198;5.004;2023-03-01T08:34:06;103206.53;;;1.80;100.00
48668;BME280;34453;52.198;5.004;2023-03-01T08:36:35;103209.50;;;2.08;100.00
48668;BME280;34453;52.198;5.004;2023-03-01T08:39:02;103196.59;;;2.06;100.00
48668;BME280;34453;52.198;5.004;2023-03-01T08:41:28;103199.09;;;2.11;100.00
48668;BME280;34453;52.198;5.004;2023-03-01T08:43:54;103196.28;;;2.23;100.00
48668;BME280;34453;52.198;5.004;2023-03-01T08:46:45;103203.63;;;2.45;100.00
48668;BME280;34453;52.198;5.004;2023-03-01T08:49:15;103201.69;;;2.56;100.00
48668;BME280;34453;52.198;5.004;2023-03-01T08:51:41;103195.88;;;2.85;100.00
48668;BME280;34453;52.198;5.004;2023-03-01T08:54:11;103185.09;;;3.05;100.00
48668;BME280;34453;52.198;5.004;2023-03-01T08:56:38;103178.75;;;3.19;100.00
48668;BME280;34453;52.198;5.004;2023-03-01T08:59:03;103173.25;;;3.32;100.00
48668;BME280;34453;52.198;5.004;2023-03-01T09:01:29;103164.63;;;3.34;100.00
48668;BME280;34453;52.198;5.004;2023-03-01T09:03:54;103167.81;;;3.43;100.00
48668;BME280;34453;52.198;5.004;2023-03-01T09:06:20;103164.88;;;3.57;100.00
48668;BME280;34453;52.198;5.004;2023-03-01T09:08:47;103165.41;;;3.71;100.00
48668;BME280;34453;52.198;5.004;2023-03-01T09:11:16;103153.25;;;3.73;100.00
48668;BME280;34453;52.198;5.004;2023-03-01T09:13:43;103148.56;;;3.88;100.00
48668;BME280;34453;52.198;5.004;2023-03-01T09:16:11;103148.44;;;4.24;100.00
48668;BME280;34453;52.198;5.004;2023-03-01T09:18:37;103139.22;;;4.43;100.00
48668;BME280;34453;52.198;5.004;2023-03-01T09:21:14;103134.47;;;4.57;100.00
48668;BME280;34453;52.198;5.004;2023-03-01T09:23:41;103131.22;;;4.51;100.00
48668;BME280;34453;52.198;5.004;2023-03-01T09:26:12;103119.03;;;4.54;100.00
48668;BME280;34453;52.198;5.004;2023-03-01T09:28:38;103115.47;;;4.57;100.00
48668;BME280;34453;52.198;5.004;2023-03-01T09:31:04;103117.28;;;4.55;100.00
48668;BME280;34453;52.198;5.004;2023-03-01T09:33:31;103116.91;;;4.67;100.00
48668;BME280;34453;52.198;5.004;2023-03-01T09:38:23;103109.16;;;4.94;100.00
48668;BME280;34453;52.198;5.004;2023-03-01T09:40:48;103109.72;;;5.04;100.00
48668;BME280;34453;52.198;5.004;2023-03-01T09:45:48;103118.88;;;5.40;100.00
48668;BME280;34453;52.198;5.004;2023-03-01T09:48:20;103116.94;;;5.47;100.00
48668;BME280;34453;52.198;5.004;2023-03-01T09:50:50;103109.47;;;5.63;100.00
48668;BME280;34453;52.198;5.004;2023-03-01T09:53:20;103119.53;;;5.72;100.00
48668;BME280;34453;52.198;5.004;2023-03-01T09:56:10;103117.50;;;5.80;100.00
48668;BME280;34453;52.198;5.004;2023-03-01T09:58:45;103118.47;;;6.03;100.00
48668;BME280;34453;52.198;5.004;2023-03-01T10:09:38;103109.28;;;6.40;100.00
48668;BME280;34453;52.198;5.004;2023-03-01T10:12:13;103104.41;;;6.54;100.00
48668;BME280;34453;52.198;5.004;2023-03-01T10:14:59;103099.50;;;6.69;100.00
48668;BME280;34453;52.198;5.004;2023-03-01T10:17:37;103108.66;;;6.79;100.00
48668;BME280;34453;52.198;5.004;2023-03-01T10:20:33;103097.50;;;6.97;100.00
48668;BME280;34453;52.198;5.004;2023-03-01T10:23:04;103093.03;;;7.21;100.00
48668;BME280;34453;52.198;5.004;2023-03-01T10:28:17;103078.38;;;7.39;100.00
48668;BME280;34453;52.198;5.004;2023-03-01T10:30:43;103077.16;;;7.48;100.00
48668;BME280;34453;52.198;5.004;2023-03-01T10:35:40;103077.28;;;7.84;100.00
48668;BME280;34453;52.198;5.004;2023-03-01T10:38:08;103067.38;;;8.12;100.00
48668;BME280;34453;52.198;5.004;2023-03-01T10:40:35;103068.13;;;8.33;100.00
48668;BME280;34453;52.198;5.004;2023-03-01T10:43:05;103058.06;;;8.25;100.00
48668;BME280;34453;52.198;5.004;2023-03-01T10:45:36;103059.78;;;8.62;100.00
48668;BME280;34453;52.198;5.004;2023-03-01T10:48:23;103059.28;;;8.73;100.00
48668;BME280;34453;52.198;5.004;2023-03-01T10:51:06;103065.22;;;8.58;100.00
48668;BME280;34453;52.198;5.004;2023-03-01T10:53:41;103056.03;;;8.32;100.00
48668;BME280;34453;52.198;5.004;2023-03-01T10:56:13;103045.22;;;8.20;100.00
48668;BME280;34453;52.198;5.004;2023-03-01T10:58:59;103043.75;;;8.15;100.00
48668;BME280;34453;52.198;5.004;2023-03-01T11:01:28;103037.97;;;8.46;100.00
48668;BME280;34453;52.198;5.004;2023-03-01T11:04:10;103040.38;;;8.32;100.00
48668;BME280;34453;52.198;5.004;2023-03-01T11:06:38;103030.44;;;8.21;100.00
48668;BME280;34453;52.198;5.004;2023-03-01T11:09:23;103034.50;;;8.26;100.00
48668;BME280;34453;52.198;5.004;2023-03-01T11:11:54;103025.47;;;8.34;100.00
48668;BME280;34453;52.198;5.004;2023-03-01T11:14:24;103018.28;;;8.39;100.00
48668;BME280;34453;52.198;5.004;2023-03-01T11:19:39;103012.97;;;8.59;100.00
48668;BME280;34453;52.198;5.004;2023-03-01T11:24:44;103004.28;;;8.41;100.00
48668;BME280;34453;52.198;5.004;2023-03-01T11:29:48;102998.84;;;8.27;100.00
48668;BME280;34453;52.198;5.004;2023-03-01T11:32:17;102997.19;;;7.88;100.00
48668;BME280;34453;52.198;5.004;2023-03-01T11:34:55;102998.97;;;7.87;100.00
48668;BME280;34453;52.198;5.004;2023-03-01T11:44:20;102983.34;;;8.43;100.00
48668;BME280;34453;52.198;5.004;2023-03-01T11:46:28;102981.81;;;8.20;100.00
48668;BME280;34453;52.198;5.004;2023-03-01T11:57:44;102982.41;;;8.44;100.00
48668;BME280;34453;52.198;5.004;2023-03-01T12:00:23;102977.75;;;8.14;100.00
48668;BME280;34453;52.198;5.004;2023-03-01T12:08:41;102976.28;;;8.62;100.00
48668;BME280;34453;52.198;5.004;2023-03-01T12:22:17;102958.25;;;8.58;100.00
48668;BME280;34453;52.198;5.004;2023-03-01T12:34:38;102936.22;;;8.98;100.00
48668;BME280;34453;52.198;5.004;2023-03-01T12:42:46;102938.19;;;9.10;100.00
48668;BME280;34453;52.198;5.004;2023-03-01T12:50:45;102932.03;;;9.61;100.00
48668;BME280;34453;52.198;5.004;2023-03-01T12:55:59;102940.63;;;9.63;100.00
48668;BME280;34453;52.198;5.004;2023-03-01T13:11:49;102907.19;;;10.00;100.00
48668;BME280;34453;52.198;5.004;2023-03-01T13:16:49;102895.69;;;10.34;100.00
48668;BME280;34453;52.198;5.004;2023-03-01T13:19:20;102894.53;;;10.08;100.00
48668;BME280;34453;52.198;5.004;2023-03-01T13:21:48;102896.94;;;9.96;100.00
48668;BME280;34453;52.198;5.004;2023-03-01T13:29:51;102868.16;;;10.71;100.00
48668;BME280;34453;52.198;5.004;2023-03-01T13:32:36;102872.47;;;10.72;100.00
48668;BME280;34453;52.198;5.004;2023-03-01T13:37:40;102858.59;;;10.56;100.00
48668;BME280;34453;52.198;5.004;2023-03-01T13:42:55;102862.72;;;10.46;100.00
48668;BME280;34453;52.198;5.004;2023-03-01T13:45:25;102852.38;;;10.58;100.00
48668;BME280;34453;52.198;5.004;2023-03-01T13:48:02;102855.34;;;10.67;100.00
48668;BME280;34453;52.198;5.004;2023-03-01T13:50:33;102857.13;;;10.52;100.00
48668;BME280;34453;52.198;5.004;2023-03-01T13:53:05;102840.56;;;10.37;100.00
48668;BME280;34453;52.198;5.004;2023-03-01T13:55:41;102839.84;;;10.64;100.00
48668;BME280;34453;52.198;5.004;2023-03-01T13:58:20;102836.66;;;10.58;100.00
48668;BME280;34453;52.198;5.004;2023-03-01T14:00:55;102829.44;;;10.62;100.00
48668;BME280;34453;52.198;5.004;2023-03-01T14:03:21;102833.66;;;10.50;100.00
48668;BME280;34453;52.198;5.004;2023-03-01T14:08:35;102820.75;;;10.76;100.00
48668;BME280;34453;52.198;5.004;2023-03-01T14:19:23;102805.28;;;11.69;100.00
48668;BME280;34453;52.198;5.004;2023-03-01T14:24:29;102790.97;;;11.87;100.00
48668;BME280;34453;52.198;5.004;2023-03-01T14:26:58;102787.16;;;12.06;100.00
48668;BME280;34453;52.198;5.004;2023-03-01T14:29:33;102788.03;;;11.79;100.00
48668;BME280;34453;52.198;5.004;2023-03-01T14:32:19;102773.94;;;11.94;100.00
48668;BME280;34453;52.198;5.004;2023-03-01T14:34:47;102766.78;;;11.96;100.00
48668;BME280;34453;52.198;5.004;2023-03-01T14:37:23;102769.19;;;11.99;100.00
48668;BME280;34453;52.198;5.004;2023-03-01T14:39:50;102768.97;;;12.02;100.00
48668;BME280;34453;52.198;5.004;2023-03-01T14:42:16;102768.63;;;11.81;100.00
48668;BME280;34453;52.198;5.004;2023-03-01T14:44:46;102770.03;;;12.00;100.00
48668;BME280;34453;52.198;5.004;2023-03-01T14:47:16;102761.56;;;11.69;100.00
48668;BME280;34453;52.198;5.004;2023-03-01T14:49:45;102761.53;;;12.09;100.00
48668;BME280;34453;52.198;5.004;2023-03-01T14:52:22;102753.19;;;11.77;100.00
48668;BME280;34453;52.198;5.004;2023-03-01T14:54:52;102755.88;;;11.62;100.00
48668;BME280;34453;52.198;5.004;2023-03-01T14:57:20;102753.59;;;11.31;100.00
48668;BME280;34453;52.198;5.004;2023-03-01T14:59:47;102749.03;;;11.20;100.00
48668;BME280;34453;52.198;5.004;2023-03-01T15:02:19;102748.00;;;11.23;100.00
48668;BME280;34453;52.198;5.004;2023-03-01T15:04:47;102758.03;;;11.43;100.00
48668;BME280;34453;52.198;5.004;2023-03-01T15:07:14;102763.91;;;11.19;100.00
48668;BME280;34453;52.198;5.004;2023-03-01T15:09:40;102763.28;;;11.43;100.00
48668;BME280;34453;52.198;5.004;2023-03-01T15:12:34;102750.03;;;11.85;100.00
48668;BME280;34453;52.198;5.004;2023-03-01T15:15:08;102753.19;;;11.77;100.00
48668;BME280;34453;52.198;5.004;2023-03-01T15:17:44;102751.78;;;11.31;100.00
48668;BME280;34453;52.198;5.004;2023-03-01T15:20:17;102752.16;;;11.12;100.00
48668;BME280;34453;52.198;5.004;2023-03-01T15:22:45;102745.13;;;11.40;100.00
48668;BME280;34453;52.198;5.004;2023-03-01T15:25:16;102737.31;;;11.26;100.00
48668;BME280;34453;52.198;5.004;2023-03-01T15:27:46;102731.28;;;11.38;100.00
48668;BME280;34453;52.198;5.004;2023-03-01T15:30:21;102734.94;;;11.35;100.00
48668;BME280;34453;52.198;5.004;2023-03-01T15:32:47;102726.31;;;11.60;100.00
48668;BME280;34453;52.198;5.004;2023-03-01T15:35:41;102729.13;;;11.97;100.00
48668;BME280;34453;52.198;5.004;2023-03-01T15:40:52;102731.22;;;12.05;100.00
48668;BME280;34453;52.198;5.004;2023-03-01T15:43:39;102726.75;;;11.67;100.00
48668;BME280;34453;52.198;5.004;2023-03-01T15:46:05;102721.19;;;11.59;100.00
48668;BME280;34453;52.198;5.004;2023-03-01T15:48:38;102729.47;;;11.66;100.00
48668;BME280;34453;52.198;5.004;2023-03-01T15:51:03;102733.84;;;11.52;100.00
48668;BME280;34453;52.198;5.004;2023-03-01T15:53:29;102727.50;;;11.42;100.00
48668;BME280;34453;52.198;5.004;2023-03-01T15:55:54;102726.13;;;11.76;100.00
48668;BME280;34453;52.198;5.004;2023-03-01T15:58:23;102734.25;;;11.46;100.00
48668;BME280;34453;52.198;5.004;2023-03-01T16:00:49;102727.25;;;11.19;100.00
48668;BME280;34453;52.198;5.004;2023-03-01T16:03:21;102728.38;;;11.55;100.00
48668;BME280;34453;52.198;5.004;2023-03-01T16:05:49;102714.53;;;11.13;100.00
48668;BME280;34453;52.198;5.004;2023-03-01T16:08:16;102714.66;;;10.70;100.00
48668;BME280;34453;52.198;5.004;2023-03-01T16:10:41;102717.63;;;10.78;100.00
48668;BME280;34453;52.198;5.004;2023-03-01T16:13:13;102722.16;;;10.33;100.00
48668;BME280;34453;52.198;5.004;2023-03-01T16:15:39;102720.22;;;10.07;100.00
48668;BME280;34453;52.198;5.004;2023-03-01T16:18:05;102719.34;;;10.51;100.00
48668;BME280;34453;52.198;5.004;2023-03-01T16:20:33;102721.97;;;10.51;100.00
48668;BME280;34453;52.198;5.004;2023-03-01T16:23:00;102716.63;;;10.24;100.00
48668;BME280;34453;52.198;5.004;2023-03-01T16:25:26;102719.50;;;10.19;100.00
48668;BME280;34453;52.198;5.004;2023-03-01T16:27:52;102723.31;;;9.54;100.00
48668;BME280;34453;52.198;5.004;2023-03-01T16:30:20;102718.09;;;9.54;100.00
48668;BME280;34453;52.198;5.004;2023-03-01T16:32:47;102717.97;;;9.26;100.00
48668;BME280;34453;52.198;5.004;2023-03-01T16:35:16;102734.50;;;9.10;100.00
48668;BME280;34453;52.198;5.004;2023-03-01T16:37:42;102726.88;;;9.38;100.00
48668;BME280;34453;52.198;5.004;2023-03-01T16:40:25;102723.75;;;9.31;100.00
48668;BME280;34453;52.198;5.004;2023-03-01T16:42:52;102727.13;;;9.33;100.00
48668;BME280;34453;52.198;5.004;2023-03-01T16:45:19;102725.84;;;8.94;100.00
48668;BME280;34453;52.198;5.004;2023-03-01T16:47:44;102716.78;;;9.16;100.00
48668;BME280;34453;52.198;5.004;2023-03-01T16:50:10;102711.50;;;9.17;100.00
48668;BME280;34453;52.198;5.004;2023-03-01T16:52:36;102712.78;;;8.94;100.00
48668;BME280;34453;52.198;5.004;2023-03-01T16:55:03;102716.06;;;8.82;100.00
48668;BME280;34453;52.198;5.004;2023-03-01T16:57:30;102718.06;;;8.27;100.00
48668;BME280;34453;52.198;5.004;2023-03-01T16:59:55;102719.34;;;7.68;100.00
48668;BME280;34453;52.198;5.004;2023-03-01T17:02:21;102719.63;;;7.27;100.00
48668;BME280;34453;52.198;5.004;2023-03-01T17:04:53;102717.78;;;7.10;100.00
48668;BME280;34453;52.198;5.004;2023-03-01T17:07:19;102719.22;;;6.79;100.00
48668;BME280;34453;52.198;5.004;2023-03-01T17:09:45;102717.44;;;6.42;100.00
48668;BME280;34453;52.198;5.004;2023-03-01T17:12:14;102713.84;;;6.26;100.00
48668;BME280;34453;52.198;5.004;2023-03-01T17:14:40;102711.13;;;6.08;100.00
48668;BME280;34453;52.198;5.004;2023-03-01T17:17:10;102720.84;;;5.82;100.00
48668;BME280;34453;52.198;5.004;2023-03-01T17:19:36;102725.03;;;5.65;100.00
48668;BME280;34453;52.198;5.004;2023-03-01T17:22:06;102715.81;;;5.57;100.00
48668;BME280;34453;52.198;5.004;2023-03-01T17:24:35;102718.97;;;5.44;100.00
48668;BME280;34453;52.198;5.004;2023-03-01T17:27:01;102722.59;;;5.39;100.00
48668;BME280;34453;52.198;5.004;2023-03-01T17:29:28;102715.22;;;5.29;100.00
48668;BME280;34453;52.198;5.004;2023-03-01T17:31:53;102726.09;;;5.16;100.00
48668;BME280;34453;52.198;5.004;2023-03-01T17:34:20;102721.28;;;5.07;100.00
48668;BME280;34453;52.198;5.004;2023-03-01T17:36:45;102718.84;;;5.03;100.00
48668;BME280;34453;52.198;5.004;2023-03-01T17:39:12;102728.81;;;4.91;100.00
48668;BME280;34453;52.198;5.004;2023-03-01T17:41:37;102726.66;;;4.79;100.00
48668;BME280;34453;52.198;5.004;2023-03-01T17:44:03;102722.78;;;4.67;100.00
48668;BME280;34453;52.198;5.004;2023-03-01T17:46:28;102723.13;;;4.58;100.00
48668;BME280;34453;52.198;5.004;2023-03-01T17:48:56;102719.22;;;4.46;100.00
48668;BME280;34453;52.198;5.004;2023-03-01T17:51:21;102722.59;;;4.48;100.00
48668;BME280;34453;52.198;5.004;2023-03-01T17:53:46;102725.69;;;4.34;100.00
48668;BME280;34453;52.198;5.004;2023-03-01T17:56:12;102725.41;;;4.42;100.00
48668;BME280;34453;52.198;5.004;2023-03-01T17:58:37;102734.97;;;4.40;100.00
48668;BME280;34453;52.198;5.004;2023-03-01T18:01:12;102728.81;;;4.19;100.00
48668;BME280;34453;52.198;5.004;2023-03-01T18:03:42;102737.75;;;4.10;100.00
48668;BME280;34453;52.198;5.004;2023-03-01T18:06:14;102731.28;;;3.97;100.00
48668;BME280;34453;52.198;5.004;2023-03-01T18:08:40;102739.19;;;3.94;100.00
48668;BME280;34453;52.198;5.004;2023-03-01T18:11:06;102746.31;;;3.87;100.00
48668;BME280;34453;52.198;5.004;2023-03-01T18:13:33;102748.91;;;3.87;100.00
48668;BME280;34453;52.198;5.004;2023-03-01T18:15:59;102751.50;;;3.87;100.00
48668;BME280;34453;52.198;5.004;2023-03-01T18:18:27;102758.63;;;3.81;100.00
48668;BME280;34453;52.198;5.004;2023-03-01T18:20:57;102761.19;;;3.81;100.00
48668;BME280;34453;52.198;5.004;2023-03-01T18:23:23;102761.44;;;3.73;100.00
48668;BME280;34453;52.198;5.004;2023-03-01T18:25:49;102753.81;;;3.68;100.00
48668;BME280;34453;52.198;5.004;2023-03-01T18:28:14;102763.59;;;3.60;100.00
48668;BME280;34453;52.198;5.004;2023-03-01T18:30:40;102760.09;;;3.61;100.00
48668;BME280;34453;52.198;5.004;2023-03-01T18:33:05;102769.75;;;3.56;100.00
48668;BME280;34453;52.198;5.004;2023-03-01T18:35:35;102765.53;;;3.53;100.00
48668;BME280;34453;52.198;5.004;2023-03-01T18:38:00;102770.28;;;3.39;100.00
48668;BME280;34453;52.198;5.004;2023-03-01T18:40:27;102773.91;;;3.34;100.00
48668;BME280;34453;52.198;5.004;2023-03-01T18:42:53;102768.28;;;3.19;100.00
48668;BME280;34453;52.198;5.004;2023-03-01T18:45:19;102772.03;;;3.09;100.00
48668;BME280;34453;52.198;5.004;2023-03-01T18:47:47;102762.94;;;2.96;100.00
48668;BME280;34453;52.198;5.004;2023-03-01T18:50:15;102767.22;;;2.97;100.00
48668;BME280;34453;52.198;5.004;2023-03-01T18:52:41;102765.22;;;3.06;100.00
48668;BME280;34453;52.198;5.004;2023-03-01T18:55:06;102764.34;;;3.07;100.00
48668;BME280;34453;52.198;5.004;2023-03-01T18:57:32;102764.75;;;2.94;100.00
48668;BME280;34453;52.198;5.004;2023-03-01T18:59:57;102761.50;;;2.87;100.00
48668;BME280;34453;52.198;5.004;2023-03-01T19:02:23;102763.94;;;2.92;100.00
48668;BME280;34453;52.198;5.004;2023-03-01T19:04:49;102770.78;;;2.93;100.00
48668;BME280;34453;52.198;5.004;2023-03-01T19:07:15;102765.63;;;2.93;100.00
48668;BME280;34453;52.198;5.004;2023-03-01T19:09:40;102770.00;;;2.90;100.00
48668;BME280;34453;52.198;5.004;2023-03-01T19:12:06;102766.59;;;2.88;100.00
48668;BME280;34453;52.198;5.004;2023-03-01T19:14:32;102775.44;;;2.81;100.00
48668;BME280;34453;52.198;5.004;2023-03-01T19:16:58;102777.34;;;2.75;100.00
48668;BME280;34453;52.198;5.004;2023-03-01T19:19:23;102784.19;;;2.76;100.00
48668;BME280;34453;52.198;5.004;2023-03-01T19:21:48;102784.50;;;2.65;100.00
48668;BME280;34453;52.198;5.004;2023-03-01T19:24:14;102776.25;;;2.52;100.00
48668;BME280;34453;52.198;5.004;2023-03-01T19:26:39;102777.72;;;2.61;100.00
48668;BME280;34453;52.198;5.004;2023-03-01T19:29:08;102783.88;;;2.57;100.00
48668;BME280;34453;52.198;5.004;2023-03-01T19:31:36;102770.91;;;2.58;100.00
48668;BME280;34453;52.198;5.004;2023-03-01T19:34:02;102778.00;;;2.52;100.00
48668;BME280;34453;52.198;5.004;2023-03-01T19:36:28;102771.22;;;2.46;100.00
48668;BME280;34453;52.198;5.004;2023-03-01T19:39:05;102773.84;;;2.44;100.00
48668;BME280;34453;52.198;5.004;2023-03-01T19:41:31;102773.09;;;2.41;100.00
48668;BME280;34453;52.198;5.004;2023-03-01T19:43:56;102775.72;;;2.39;100.00
48668;BME280;34453;52.198;5.004;2023-03-01T19:46:23;102771.19;;;2.47;100.00
48668;BME280;34453;52.198;5.004;2023-03-01T19:48:51;102767.78;;;2.47;100.00
48668;BME280;34453;52.198;5.004;2023-03-01T19:51:17;102766.34;;;2.35;100.00
48668;BME280;34453;52.198;5.004;2023-03-01T19:53:42;102765.66;;;2.28;100.00
48668;BME280;34453;52.198;5.004;2023-03-01T19:56:08;102771.03;;;2.21;100.00
48668;BME280;34453;52.198;5.004;2023-03-01T19:58:34;102771.53;;;2.02;100.00
48668;BME280;34453;52.198;5.004;2023-03-01T20:00:59;102756.09;;;1.99;100.00
48668;BME280;34453;52.198;5.004;2023-03-01T20:03:27;102761.41;;;1.93;100.00
48668;BME280;34453;52.198;5.004;2023-03-01T20:05:53;102763.09;;;1.96;100.00
48668;BME280;34453;52.198;5.004;2023-03-01T20:08:19;102753.53;;;1.98;100.00
48668;BME280;34453;52.198;5.004;2023-03-01T20:10:44;102747.03;;;1.83;100.00
48668;BME280;34453;52.198;5.004;2023-03-01T20:13:10;102759.94;;;1.83;100.00
48668;BME280;34453;52.198;5.004;2023-03-01T20:15:35;102743.69;;;1.78;100.00
48668;BME280;34453;52.198;5.004;2023-03-01T20:18:03;102750.69;;;1.74;100.00
48668;BME280;34453;52.198;5.004;2023-03-01T20:20:28;102760.19;;;1.74;100.00
48668;BME280;34453;52.198;5.004;2023-03-01T20:22:54;102756.56;;;1.81;100.00
48668;BME280;34453;52.198;5.004;2023-03-01T20:25:19;102761.50;;;1.89;100.00
48668;BME280;34453;52.198;5.004;2023-03-01T20:27:44;102758.09;;;1.88;100.00
48668;BME280;34453;52.198;5.004;2023-03-01T20:30:13;102756.31;;;1.90;100.00
48668;BME280;34453;52.198;5.004;2023-03-01T20:32:39;102760.59;;;1.91;100.00
48668;BME280;34453;52.198;5.004;2023-03-01T20:35:04;102752.94;;;1.88;100.00
48668;BME280;34453;52.198;5.004;2023-03-01T20:37:30;102759.69;;;1.94;100.00
48668;BME280;34453;52.198;5.004;2023-03-01T20:39:56;102756.28;;;1.92;100.00
48668;BME280;34453;52.198;5.004;2023-03-01T20:42:21;102756.78;;;2.06;100.00
48668;BME280;34453;52.198;5.004;2023-03-01T20:44:46;102754.22;;;2.04;100.00
48668;BME280;34453;52.198;5.004;2023-03-01T20:47:12;102748.28;;;2.02;100.00
48668;BME280;34453;52.198;5.004;2023-03-01T20:49:38;102749.94;;;2.05;100.00
48668;BME280;34453;52.198;5.004;2023-03-01T20:52:03;102754.00;;;2.14;100.00
48668;BME280;34453;52.198;5.004;2023-03-01T20:54:29;102746.31;;;2.12;100.00
48668;BME280;34453;52.198;5.004;2023-03-01T20:56:55;102751.22;;;2.21;100.00
48668;BME280;34453;52.198;5.004;2023-03-01T20:59:22;102752.06;;;2.22;100.00
48668;BME280;34453;52.198;5.004;2023-03-01T21:01:50;102750.44;;;2.18;100.00
48668;BME280;34453;52.198;5.004;2023-03-01T21:04:16;102765.75;;;2.25;100.00
48668;BME280;34453;52.198;5.004;2023-03-01T21:06:42;102765.09;;;2.17;100.00
48668;BME280;34453;52.198;5.004;2023-03-01T21:09:08;102755.59;;;2.18;100.00
48668;BME280;34453;52.198;5.004;2023-03-01T21:11:33;102757.41;;;2.16;100.00
48668;BME280;34453;52.198;5.004;2023-03-01T21:13:59;102761.69;;;2.15;100.00
48668;BME280;34453;52.198;5.004;2023-03-01T21:16:26;102769.66;;;2.07;100.00
48668;BME280;34453;52.198;5.004;2023-03-01T21:18:53;102768.84;;;2.05;100.00
48668;BME280;34453;52.198;5.004;2023-03-01T21:21:21;102775.06;;;1.98;100.00
48668;BME280;34453;52.198;5.004;2023-03-01T21:23:47;102784.31;;;2.07;100.00
48668;BME280;34453;52.198;5.004;2023-03-01T21:26:18;102778.50;;;1.97;100.00
48668;BME280;34453;52.198;5.004;2023-03-01T21:28:43;102776.00;;;1.96;100.00
48668;BME280;34453;52.198;5.004;2023-03-01T21:31:21;102771.13;;;1.82;100.00
48668;BME280;34453;52.198;5.004;2023-03-01T21:33:56;102777.34;;;1.75;100.00
48668;BME280;34453;52.198;5.004;2023-03-01T21:36:23;102787.81;;;1.69;100.00
48668;BME280;34453;52.198;5.004;2023-03-01T21:38:50;102786.25;;;1.61;100.00
48668;BME280;34453;52.198;5.004;2023-03-01T21:41:21;102790.94;;;1.44;100.00
48668;BME280;34453;52.198;5.004;2023-03-01T21:43:48;102792.88;;;1.34;100.00
48668;BME280;34453;52.198;5.004;2023-03-01T21:46:16;102793.09;;;1.25;100.00
48668;BME280;34453;52.198;5.004;2023-03-01T21:48:43;102794.13;;;1.16;100.00
48668;BME280;34453;52.198;5.004;2023-03-01T21:51:10;102795.25;;;1.05;100.00
48668;BME280;34453;52.198;5.004;2023-03-01T21:53:36;102801.25;;;1.05;100.00
48668;BME280;34453;52.198;5.004;2023-03-01T21:56:03;102797.84;;;1.03;100.00
48668;BME280;34453;52.198;5.004;2023-03-01T21:58:29;102794.66;;;0.92;100.00
48668;BME280;34453;52.198;5.004;2023-03-01T22:00:56;102797.53;;;0.76;100.00
48668;BME280;34453;52.198;5.004;2023-03-01T22:03:22;102797.66;;;0.69;100.00
48668;BME280;34453;52.198;5.004;2023-03-01T22:05:55;102790.94;;;0.61;100.00
48668;BME280;34453;52.198;5.004;2023-03-01T22:08:21;102801.34;;;0.55;100.00
48668;BME280;34453;52.198;5.004;2023-03-01T22:10:47;102789.53;;;0.45;100.00
48668;BME280;34453;52.198;5.004;2023-03-01T22:13:12;102792.28;;;0.36;100.00
48668;BME280;34453;52.198;5.004;2023-03-01T22:15:39;102795.91;;;0.24;100.00
48668;BME280;34453;52.198;5.004;2023-03-01T22:18:06;102791.63;;;0.23;100.00
48668;BME280;34453;52.198;5.004;2023-03-01T22:20:32;102788.31;;;0.18;100.00
48668;BME280;34453;52.198;5.004;2023-03-01T22:22:57;102791.06;;;0.07;100.00
48668;BME280;34453;52.198;5.004;2023-03-01T22:25:23;102791.25;;;-0.05;100.00
48668;BME280;34453;52.198;5.004;2023-03-01T22:27:48;102793.84;;;-0.07;100.00
48668;BME280;34453;52.198;5.004;2023-03-01T22:30:14;102794.81;;;-0.14;100.00
48668;BME280;34453;52.198;5.004;2023-03-01T22:32:39;102793.03;;;-0.09;100.00
48668;BME280;34453;52.198;5.004;2023-03-01T22:35:05;102799.81;;;-0.05;100.00
48668;BME280;34453;52.198;5.004;2023-03-01T22:37:31;102805.06;;;-0.11;100.00